sensor_id;sensor_type;location;lat;lon;timestamp;pressure;altitude;pressure_sealevel;temperature;humidity
80627;BME280;69982;51.758;5.784;2023-11-18T00:01:54;102364.52;;;6.81;76.76
80627;BME280;69982;51.758;5.784;2023-11-18T00:04:56;102365.05;;;6.81;76.75
80627;BME280;69982;51.758;5.784;2023-11-18T00:07:31;102360.84;;;6.85;76.72
80627;BME280;69982;51.758;5.784;2023-11-18T00:10:08;102360.70;;;6.87;76.50
80627;BME280;69982;51.758;5.784;2023-11-18T00:12:55;102359.97;;;6.90;76.49
80627;BME280;69982;51.758;5.784;2023-11-18T00:15:38;102363.20;;;6.92;76.40
80627;BME280;69982;51.758;5.784;2023-11-18T00:18:10;102362.50;;;6.92;76.39
80627;BME280;69982;51.758;5.784;2023-11-18T00:20:58;102361.68;;;6.91;76.38
80627;BME280;69982;51.758;5.784;2023-11-18T00:23:33;102358.84;;;6.87;76.40
80627;BME280;69982;51.758;5.784;2023-11-18T00:26:02;102357.27;;;6.84;76.21
80627;BME280;69982;51.758;5.784;2023-11-18T00:28:33;102356.68;;;6.79;76.26
80627;BME280;69982;51.758;5.784;2023-11-18T00:31:02;102355.08;;;6.74;76.30
80627;BME280;69982;51.758;5.784;2023-11-18T00:33:35;102350.39;;;6.67;76.40
80627;BME280;69982;51.758;5.784;2023-11-18T00:36:07;102347.93;;;6.60;76.36
80627;BME280;69982;51.758;5.784;2023-11-18T00:38:43;102350.61;;;6.53;76.36
80627;BME280;69982;51.758;5.784;2023-11-18T00:41:30;102345.38;;;6.50;76.33
80627;BME280;69982;51.758;5.784;2023-11-18T00:44:04;102339.88;;;6.49;76.73
80627;BME280;69982;51.758;5.784;2023-11-18T00:46:48;102340.30;;;6.50;76.66
80627;BME280;69982;51.758;5.784;2023-11-18T00:49:23;102339.77;;;6.53;76.55
80627;BME280;69982;51.758;5.784;2023-11-18T00:51:51;102339.21;;;6.56;76.60
80627;BME280;69982;51.758;5.784;2023-11-18T00:54:25;102336.08;;;6.60;76.72
80627;BME280;69982;51.758;5.784;2023-11-18T00:57:01;102332.91;;;6.62;76.58
80627;BME280;69982;51.758;5.784;2023-11-18T00:59:29;102334.10;;;6.63;76.66
80627;BME280;69982;51.758;5.784;2023-11-18T01:01:56;102336.00;;;6.61;76.71
80627;BME280;69982;51.758;5.784;2023-11-18T01:04:30;102346.05;;;6.59;76.65
80627;BME280;69982;51.758;5.784;2023-11-18T01:07:02;102354.73;;;6.53;76.76
80627;BME280;69982;51.758;5.784;2023-11-18T01:09:43;102357.70;;;6.46;76.71
80627;BME280;69982;51.758;5.784;2023-11-18T01:12:32;102362.47;;;6.39;76.96
80627;BME280;69982;51.758;5.784;2023-11-18T01:15:19;102365.21;;;6.33;76.88
80627;BME280;69982;51.758;5.784;2023-11-18T01:18:04;102363.58;;;6.31;76.94
80627;BME280;69982;51.758;5.784;2023-11-18T01:20:36;102369.13;;;6.31;77.02
80627;BME280;69982;51.758;5.784;2023-11-18T01:23:04;102375.45;;;6.34;77.08
80627;BME280;69982;51.758;5.784;2023-11-18T01:25:38;102379.11;;;6.38;77.24
80627;BME280;69982;51.758;5.784;2023-11-18T01:28:21;102381.73;;;6.41;77.31
80627;BME280;69982;51.758;5.784;2023-11-18T01:30:56;102380.88;;;6.43;77.33
80627;BME280;69982;51.758;5.784;2023-11-18T01:33:22;102381.94;;;6.44;77.34
80627;BME280;69982;51.758;5.784;2023-11-18T01:36:01;102379.33;;;6.43;77.35
80627;BME280;69982;51.758;5.784;2023-11-18T01:38:35;102379.92;;;6.42;77.49
80627;BME280;69982;51.758;5.784;2023-11-18T01:41:01;102378.31;;;6.39;77.33
80627;BME280;69982;51.758;5.784;2023-11-18T01:43:47;102373.42;;;6.34;77.60
80627;BME280;69982;51.758;5.784;2023-11-18T01:46:16;102367.90;;;6.31;77.79
80627;BME280;69982;51.758;5.784;2023-11-18T01:49:00;102361.24;;;6.25;77.90
80627;BME280;69982;51.758;5.784;2023-11-18T01:51:43;102358.29;;;6.18;77.92
80627;BME280;69982;51.758;5.784;2023-11-18T01:54:34;102352.64;;;6.17;78.08
80627;BME280;69982;51.758;5.784;2023-11-18T01:57:07;102354.77;;;6.17;78.25
80627;BME280;69982;51.758;5.784;2023-11-18T01:59:39;102353.00;;;6.20;78.38
80627;BME280;69982;51.758;5.784;2023-11-18T02:02:08;102350.86;;;6.25;78.35
80627;BME280;69982;51.758;5.784;2023-11-18T02:04:38;102353.63;;;6.29;78.30
80627;BME280;69982;51.758;5.784;2023-11-18T02:07:08;102356.13;;;6.35;78.37
80627;BME280;69982;51.758;5.784;2023-11-18T02:09:35;102351.86;;;6.36;78.51
80627;BME280;69982;51.758;5.784;2023-11-18T02:15:11;102348.80;;;6.34;78.76
80627;BME280;69982;51.758;5.784;2023-11-18T02:17:41;102345.66;;;6.32;78.79
80627;BME280;69982;51.758;5.784;2023-11-18T02:20:12;102343.59;;;6.28;78.95
80627;BME280;69982;51.758;5.784;2023-11-18T02:22:44;102350.42;;;6.26;78.96
80627;BME280;69982;51.758;5.784;2023-11-18T02:25:17;102356.13;;;6.24;79.08
80627;BME280;69982;51.758;5.784;2023-11-18T02:27:56;102353.10;;;6.23;78.97
80627;BME280;69982;51.758;5.784;2023-11-18T02:30:24;102353.76;;;6.24;79.11
80627;BME280;69982;51.758;5.784;2023-11-18T02:33:18;102356.80;;;6.27;79.00
80627;BME280;69982;51.758;5.784;2023-11-18T02:35:51;102366.38;;;6.32;79.07
80627;BME280;69982;51.758;5.784;2023-11-18T02:38:41;102376.60;;;6.35;79.22
80627;BME280;69982;51.758;5.784;2023-11-18T02:41:36;102383.10;;;6.37;79.24
80627;BME280;69982;51.758;5.784;2023-11-18T02:44:45;102374.63;;;6.40;79.35
80627;BME280;69982;51.758;5.784;2023-11-18T02:47:28;102369.00;;;6.41;79.21
80627;BME280;69982;51.758;5.784;2023-11-18T02:50:03;102366.95;;;6.40;79.20
80627;BME280;69982;51.758;5.784;2023-11-18T02:52:45;102363.70;;;6.34;79.20
80627;BME280;69982;51.758;5.784;2023-11-18T02:55:19;102354.28;;;6.27;79.26
80627;BME280;69982;51.758;5.784;2023-11-18T02:58:14;102347.99;;;6.24;79.36
80627;BME280;69982;51.758;5.784;2023-11-18T03:00:44;102342.87;;;6.26;79.29
80627;BME280;69982;51.758;5.784;2023-11-18T03:03:19;102337.27;;;6.29;79.36
80627;BME280;69982;51.758;5.784;2023-11-18T03:05:48;102333.98;;;6.32;79.54
80627;BME280;69982;51.758;5.784;2023-11-18T03:08:18;102335.86;;;6.36;79.47
80627;BME280;69982;51.758;5.784;2023-11-18T03:11:01;102327.40;;;6.39;79.53
80627;BME280;69982;51.758;5.784;2023-11-18T03:13:44;102317.29;;;6.40;79.49
80627;BME280;69982;51.758;5.784;2023-11-18T03:16:12;102320.48;;;6.40;79.45
80627;BME280;69982;51.758;5.784;2023-11-18T03:19:12;102320.96;;;6.38;79.39
80627;BME280;69982;51.758;5.784;2023-11-18T03:22:01;102321.21;;;6.35;79.77
80627;BME280;69982;51.758;5.784;2023-11-18T03:24:30;102325.52;;;6.32;79.62
80627;BME280;69982;51.758;5.784;2023-11-18T03:27:00;102330.18;;;6.33;79.57
80627;BME280;69982;51.758;5.784;2023-11-18T03:29:34;102331.51;;;6.34;79.65
80627;BME280;69982;51.758;5.784;2023-11-18T03:32:13;102332.23;;;6.37;79.67
80627;BME280;69982;51.758;5.784;2023-11-18T03:34:59;102332.46;;;6.36;79.88
80627;BME280;69982;51.758;5.784;2023-11-18T03:37:48;102324.70;;;6.31;80.06
80627;BME280;69982;51.758;5.784;2023-11-18T03:40:22;102325.72;;;6.29;80.01
80627;BME280;69982;51.758;5.784;2023-11-18T03:43:09;102323.54;;;6.27;80.05
80627;BME280;69982;51.758;5.784;2023-11-18T03:45:42;102329.30;;;6.24;80.11
80627;BME280;69982;51.758;5.784;2023-11-18T03:48:25;102328.79;;;6.18;80.30
80627;BME280;69982;51.758;5.784;2023-11-18T03:51:13;102316.73;;;6.19;80.61
80627;BME280;69982;51.758;5.784;2023-11-18T03:53:55;102313.13;;;6.21;80.67
80627;BME280;69982;51.758;5.784;2023-11-18T03:56:38;102304.26;;;6.25;80.70
80627;BME280;69982;51.758;5.784;2023-11-18T03:59:30;102297.05;;;6.30;80.77
80627;BME280;69982;51.758;5.784;2023-11-18T04:02:18;102286.09;;;6.38;80.66
80627;BME280;69982;51.758;5.784;2023-11-18T04:04:54;102278.85;;;6.44;80.69
80627;BME280;69982;51.758;5.784;2023-11-18T04:07:45;102278.00;;;6.49;80.56
80627;BME280;69982;51.758;5.784;2023-11-18T04:10:15;102272.09;;;6.48;80.59
80627;BME280;69982;51.758;5.784;2023-11-18T04:12:44;102266.40;;;6.47;80.63
80627;BME280;69982;51.758;5.784;2023-11-18T04:15:41;102258.20;;;6.46;80.67
80627;BME280;69982;51.758;5.784;2023-11-18T04:18:09;102257.20;;;6.42;80.51
80627;BME280;69982;51.758;5.784;2023-11-18T04:20:47;102246.64;;;6.42;80.44
80627;BME280;69982;51.758;5.784;2023-11-18T04:23:21;102244.26;;;6.45;80.54
80627;BME280;69982;51.758;5.784;2023-11-18T04:25:52;102244.91;;;6.48;80.61
80627;BME280;69982;51.758;5.784;2023-11-18T04:28:23;102245.11;;;6.51;80.62
80627;BME280;69982;51.758;5.784;2023-11-18T04:30:51;102247.89;;;6.53;80.63
80627;BME280;69982;51.758;5.784;2023-11-18T04:33:19;102245.83;;;6.54;80.71
80627;BME280;69982;51.758;5.784;2023-11-18T04:36:02;102246.73;;;6.54;80.69
80627;BME280;69982;51.758;5.784;2023-11-18T04:38:42;102238.52;;;6.56;80.57
80627;BME280;69982;51.758;5.784;2023-11-18T04:41:17;102235.77;;;6.54;80.48
80627;BME280;69982;51.758;5.784;2023-11-18T04:44:00;102228.55;;;6.51;80.48
80627;BME280;69982;51.758;5.784;2023-11-18T04:46:34;102226.55;;;6.51;80.61
80627;BME280;69982;51.758;5.784;2023-11-18T04:49:05;102216.61;;;6.52;80.56
80627;BME280;69982;51.758;5.784;2023-11-18T04:51:39;102210.73;;;6.54;80.59
80627;BME280;69982;51.758;5.784;2023-11-18T04:54:28;102206.69;;;6.55;80.69
80627;BME280;69982;51.758;5.784;2023-11-18T04:56:54;102209.19;;;6.56;80.70
80627;BME280;69982;51.758;5.784;2023-11-18T04:59:25;102204.59;;;6.57;80.70
80627;BME280;69982;51.758;5.784;2023-11-18T05:02:00;102206.33;;;6.58;80.62
80627;BME280;69982;51.758;5.784;2023-11-18T05:04:32;102197.80;;;6.57;80.67
80627;BME280;69982;51.758;5.784;2023-11-18T05:07:01;102190.78;;;6.54;80.62
80627;BME280;69982;51.758;5.784;2023-11-18T05:09:31;102199.45;;;6.51;80.71
80627;BME280;69982;51.758;5.784;2023-11-18T05:12:26;102199.34;;;6.49;80.71
80627;BME280;69982;51.758;5.784;2023-11-18T05:15:09;102206.46;;;6.50;80.82
80627;BME280;69982;51.758;5.784;2023-11-18T05:17:45;102208.21;;;6.52;81.00
80627;BME280;69982;51.758;5.784;2023-11-18T05:20:17;102211.03;;;6.55;80.88
80627;BME280;69982;51.758;5.784;2023-11-18T05:22:51;102212.45;;;6.60;80.87
80627;BME280;69982;51.758;5.784;2023-11-18T05:25:39;102206.35;;;6.65;80.73
80627;BME280;69982;51.758;5.784;2023-11-18T05:28:23;102204.13;;;6.69;80.90
80627;BME280;69982;51.758;5.784;2023-11-18T05:30:54;102204.64;;;6.72;80.87
80627;BME280;69982;51.758;5.784;2023-11-18T05:33:33;102205.73;;;6.71;80.76
80627;BME280;69982;51.758;5.784;2023-11-18T05:36:07;102202.05;;;6.70;80.65
80627;BME280;69982;51.758;5.784;2023-11-18T05:38:37;102183.52;;;6.65;80.59
80627;BME280;69982;51.758;5.784;2023-11-18T05:41:08;102171.21;;;6.61;80.73
80627;BME280;69982;51.758;5.784;2023-11-18T05:43:48;102167.35;;;6.57;80.77
80627;BME280;69982;51.758;5.784;2023-11-18T05:46:26;102171.86;;;6.57;80.67
80627;BME280;69982;51.758;5.784;2023-11-18T05:49:07;102175.94;;;6.58;80.72
80627;BME280;69982;51.758;5.784;2023-11-18T05:51:50;102174.77;;;6.59;80.92
80627;BME280;69982;51.758;5.784;2023-11-18T05:54:25;102175.52;;;6.61;80.84
80627;BME280;69982;51.758;5.784;2023-11-18T05:56:56;102172.92;;;6.65;80.82
80627;BME280;69982;51.758;5.784;2023-11-18T05:59:29;102170.77;;;6.67;80.91
80627;BME280;69982;51.758;5.784;2023-11-18T06:01:59;102164.44;;;6.68;81.13
80627;BME280;69982;51.758;5.784;2023-11-18T06:04:55;102164.71;;;6.66;81.04
80627;BME280;69982;51.758;5.784;2023-11-18T06:07:38;102163.48;;;6.63;81.13
80627;BME280;69982;51.758;5.784;2023-11-18T06:10:14;102158.11;;;6.61;81.23
80627;BME280;69982;51.758;5.784;2023-11-18T06:12:48;102153.10;;;6.60;81.20
80627;BME280;69982;51.758;5.784;2023-11-18T06:15:28;102157.84;;;6.62;81.32
80627;BME280;69982;51.758;5.784;2023-11-18T06:17:54;102156.17;;;6.62;81.35
80627;BME280;69982;51.758;5.784;2023-11-18T06:20:28;102148.29;;;6.64;81.32
80627;BME280;69982;51.758;5.784;2023-11-18T06:23:02;102147.55;;;6.70;81.34
80627;BME280;69982;51.758;5.784;2023-11-18T06:25:58;102146.16;;;6.74;81.29
80627;BME280;69982;51.758;5.784;2023-11-18T06:28:34;102154.45;;;6.76;81.21
80627;BME280;69982;51.758;5.784;2023-11-18T06:31:05;102158.05;;;6.76;81.31
80627;BME280;69982;51.758;5.784;2023-11-18T06:33:46;102162.88;;;6.74;81.28
80627;BME280;69982;51.758;5.784;2023-11-18T06:36:23;102162.44;;;6.73;81.38
80627;BME280;69982;51.758;5.784;2023-11-18T06:38:54;102146.27;;;6.70;81.17
80627;BME280;69982;51.758;5.784;2023-11-18T06:41:24;102139.96;;;6.72;81.24
80627;BME280;69982;51.758;5.784;2023-11-18T06:44:14;102144.09;;;6.78;81.26
80627;BME280;69982;51.758;5.784;2023-11-18T06:46:55;102149.80;;;6.81;81.19
80627;BME280;69982;51.758;5.784;2023-11-18T06:49:24;102152.89;;;6.85;81.15
80627;BME280;69982;51.758;5.784;2023-11-18T06:52:10;102145.71;;;6.85;81.19
80627;BME280;69982;51.758;5.784;2023-11-18T06:55:08;102146.55;;;6.84;81.15
80627;BME280;69982;51.758;5.784;2023-11-18T06:57:44;102146.09;;;6.80;81.26
80627;BME280;69982;51.758;5.784;2023-11-18T07:00:33;102139.16;;;6.76;81.41
80627;BME280;69982;51.758;5.784;2023-11-18T07:03:03;102134.60;;;6.77;81.32
80627;BME280;69982;51.758;5.784;2023-11-18T07:05:36;102130.63;;;6.77;81.37
80627;BME280;69982;51.758;5.784;2023-11-18T07:08:11;102133.57;;;6.79;81.33
80627;BME280;69982;51.758;5.784;2023-11-18T07:10:48;102141.09;;;6.79;81.31
80627;BME280;69982;51.758;5.784;2023-11-18T07:13:24;102142.65;;;6.80;81.40
80627;BME280;69982;51.758;5.784;2023-11-18T07:16:11;102141.52;;;6.78;81.41
80627;BME280;69982;51.758;5.784;2023-11-18T07:18:56;102140.98;;;6.76;81.40
80627;BME280;69982;51.758;5.784;2023-11-18T07:21:25;102135.71;;;6.74;81.44
80627;BME280;69982;51.758;5.784;2023-11-18T07:24:16;102130.19;;;6.71;81.45
80627;BME280;69982;51.758;5.784;2023-11-18T07:26:52;102122.41;;;6.71;81.58
80627;BME280;69982;51.758;5.784;2023-11-18T07:29:27;102121.67;;;6.74;81.55
80627;BME280;69982;51.758;5.784;2023-11-18T07:32:04;102127.05;;;6.77;81.48
80627;BME280;69982;51.758;5.784;2023-11-18T07:34:43;102129.78;;;6.79;81.67
80627;BME280;69982;51.758;5.784;2023-11-18T07:37:15;102122.80;;;6.81;81.57
80627;BME280;69982;51.758;5.784;2023-11-18T07:40:10;102123.27;;;6.85;81.58
80627;BME280;69982;51.758;5.784;2023-11-18T07:42:43;102126.33;;;6.85;81.56
80627;BME280;69982;51.758;5.784;2023-11-18T07:45:36;102132.02;;;6.83;81.56
80627;BME280;69982;51.758;5.784;2023-11-18T07:48:27;102137.95;;;6.80;81.47
80627;BME280;69982;51.758;5.784;2023-11-18T07:51:21;102140.27;;;6.78;81.53
80627;BME280;69982;51.758;5.784;2023-11-18T07:54:07;102146.78;;;6.75;81.47
80627;BME280;69982;51.758;5.784;2023-11-18T07:56:58;102153.05;;;6.73;81.67
80627;BME280;69982;51.758;5.784;2023-11-18T07:59:34;102157.65;;;6.74;81.64
80627;BME280;69982;51.758;5.784;2023-11-18T08:02:12;102152.23;;;6.77;81.73
80627;BME280;69982;51.758;5.784;2023-11-18T08:04:55;102145.70;;;6.80;81.78
80627;BME280;69982;51.758;5.784;2023-11-18T08:07:49;102148.88;;;6.86;81.62
80627;BME280;69982;51.758;5.784;2023-11-18T08:10:24;102141.94;;;6.88;81.49
80627;BME280;69982;51.758;5.784;2023-11-18T08:13:16;102150.68;;;6.89;81.36
80627;BME280;69982;51.758;5.784;2023-11-18T08:15:45;102146.98;;;6.87;81.27
80627;BME280;69982;51.758;5.784;2023-11-18T08:18:30;102142.70;;;6.85;81.41
80627;BME280;69982;51.758;5.784;2023-11-18T08:21:02;102139.16;;;6.81;81.41
80627;BME280;69982;51.758;5.784;2023-11-18T08:23:34;102141.13;;;6.81;81.52
80627;BME280;69982;51.758;5.784;2023-11-18T08:26:07;102139.52;;;6.84;81.42
80627;BME280;69982;51.758;5.784;2023-11-18T08:28:40;102138.11;;;6.88;81.48
80627;BME280;69982;51.758;5.784;2023-11-18T08:31:17;102137.29;;;6.92;81.34
80627;BME280;69982;51.758;5.784;2023-11-18T08:33:44;102134.42;;;6.94;81.31
80627;BME280;69982;51.758;5.784;2023-11-18T08:36:22;102130.26;;;6.95;81.17
80627;BME280;69982;51.758;5.784;2023-11-18T08:38:53;102121.66;;;6.94;81.20
80627;BME280;69982;51.758;5.784;2023-11-18T08:41:24;102110.87;;;6.92;81.27
80627;BME280;69982;51.758;5.784;2023-11-18T08:43:59;102104.27;;;6.88;81.28
80627;BME280;69982;51.758;5.784;2023-11-18T08:46:43;102101.09;;;6.90;81.28
80627;BME280;69982;51.758;5.784;2023-11-18T08:49:18;102088.85;;;6.92;81.12
80627;BME280;69982;51.758;5.784;2023-11-18T08:52:04;102074.59;;;6.95;81.21
80627;BME280;69982;51.758;5.784;2023-11-18T08:54:44;102057.27;;;6.96;81.20
80627;BME280;69982;51.758;5.784;2023-11-18T08:57:36;102059.44;;;6.95;81.23
80627;BME280;69982;51.758;5.784;2023-11-18T09:00:19;102060.42;;;6.95;81.17
80627;BME280;69982;51.758;5.784;2023-11-18T09:03:16;102056.91;;;6.91;81.28
80627;BME280;69982;51.758;5.784;2023-11-18T09:05:56;102057.14;;;6.88;81.38
80627;BME280;69982;51.758;5.784;2023-11-18T09:08:43;102053.35;;;6.88;81.35
80627;BME280;69982;51.758;5.784;2023-11-18T09:11:13;102065.62;;;6.90;81.45
80627;BME280;69982;51.758;5.784;2023-11-18T09:13:50;102061.06;;;6.93;81.47
80627;BME280;69982;51.758;5.784;2023-11-18T09:16:41;102057.23;;;6.94;81.46
80627;BME280;69982;51.758;5.784;2023-11-18T09:19:10;102056.12;;;6.94;81.53
80627;BME280;69982;51.758;5.784;2023-11-18T09:21:37;102059.27;;;6.95;81.47
80627;BME280;69982;51.758;5.784;2023-11-18T09:24:08;102064.44;;;6.94;81.38
80627;BME280;69982;51.758;5.784;2023-11-18T09:26:39;102053.88;;;6.93;81.57
80627;BME280;69982;51.758;5.784;2023-11-18T09:29:16;102049.00;;;6.93;81.68
80627;BME280;69982;51.758;5.784;2023-11-18T09:31:54;102030.91;;;6.94;81.68
80627;BME280;69982;51.758;5.784;2023-11-18T09:34:41;102026.02;;;6.97;81.78
80627;BME280;69982;51.758;5.784;2023-11-18T09:37:18;102021.94;;;7.01;81.70
80627;BME280;69982;51.758;5.784;2023-11-18T09:39:46;102013.31;;;7.03;81.85
80627;BME280;69982;51.758;5.784;2023-11-18T09:42:16;102012.12;;;7.05;81.71
80627;BME280;69982;51.758;5.784;2023-11-18T09:45:10;102010.48;;;7.05;81.89
80627;BME280;69982;51.758;5.784;2023-11-18T09:48:00;102012.34;;;7.04;81.80
80627;BME280;69982;51.758;5.784;2023-11-18T09:50:30;102007.49;;;7.06;81.90
80627;BME280;69982;51.758;5.784;2023-11-18T09:53:37;101995.16;;;7.10;81.84
80627;BME280;69982;51.758;5.784;2023-11-18T09:56:23;101998.80;;;7.14;81.88
80627;BME280;69982;51.758;5.784;2023-11-18T09:59:00;101985.58;;;7.18;81.74
80627;BME280;69982;51.758;5.784;2023-11-18T10:01:38;101974.04;;;7.21;81.80
80627;BME280;69982;51.758;5.784;2023-11-18T10:04:29;101963.80;;;7.20;81.72
80627;BME280;69982;51.758;5.784;2023-11-18T10:07:01;101959.16;;;7.22;81.64
80627;BME280;69982;51.758;5.784;2023-11-18T10:09:29;101957.44;;;7.21;81.79
80627;BME280;69982;51.758;5.784;2023-11-18T10:12:33;101954.48;;;7.22;81.83
80627;BME280;69982;51.758;5.784;2023-11-18T10:15:07;101958.19;;;7.25;81.88
80627;BME280;69982;51.758;5.784;2023-11-18T10:17:41;101950.69;;;7.29;81.93
80627;BME280;69982;51.758;5.784;2023-11-18T10:20:43;101943.92;;;7.35;81.94
80627;BME280;69982;51.758;5.784;2023-11-18T10:23:19;101951.77;;;7.38;82.01
80627;BME280;69982;51.758;5.784;2023-11-18T10:25:48;101948.76;;;7.40;82.05
80627;BME280;69982;51.758;5.784;2023-11-18T10:28:36;101940.11;;;7.40;81.99
80627;BME280;69982;51.758;5.784;2023-11-18T10:31:25;101921.52;;;7.40;82.16
80627;BME280;69982;51.758;5.784;2023-11-18T10:34:16;101925.38;;;7.44;82.20
80627;BME280;69982;51.758;5.784;2023-11-18T10:36:58;101935.56;;;7.47;82.21
80627;BME280;69982;51.758;5.784;2023-11-18T10:39:31;101935.73;;;7.52;82.29
80627;BME280;69982;51.758;5.784;2023-11-18T10:42:02;101922.59;;;7.57;82.35
80627;BME280;69982;51.758;5.784;2023-11-18T10:44:29;101933.63;;;7.60;82.43
80627;BME280;69982;51.758;5.784;2023-11-18T10:46:58;101937.98;;;7.62;82.45
80627;BME280;69982;51.758;5.784;2023-11-18T10:49:54;101921.83;;;7.64;82.47
80627;BME280;69982;51.758;5.784;2023-11-18T10:52:34;101904.92;;;7.63;82.71
80627;BME280;69982;51.758;5.784;2023-11-18T10:55:07;101915.67;;;7.66;82.81
80627;BME280;69982;51.758;5.784;2023-11-18T10:57:40;101919.36;;;7.70;82.86
80627;BME280;69982;51.758;5.784;2023-11-18T11:00:48;101915.28;;;7.76;82.84
80627;BME280;69982;51.758;5.784;2023-11-18T11:03:23;101910.72;;;7.81;82.92
80627;BME280;69982;51.758;5.784;2023-11-18T11:05:58;101910.14;;;7.84;82.90
80627;BME280;69982;51.758;5.784;2023-11-18T11:08:27;101919.28;;;7.85;83.02
80627;BME280;69982;51.758;5.784;2023-11-18T11:11:21;101912.45;;;7.85;83.20
80627;BME280;69982;51.758;5.784;2023-11-18T11:14:04;101920.36;;;7.85;83.16
80627;BME280;69982;51.758;5.784;2023-11-18T11:16:42;101918.64;;;7.86;83.29
80627;BME280;69982;51.758;5.784;2023-11-18T11:19:26;101906.89;;;7.89;83.25
80627;BME280;69982;51.758;5.784;2023-11-18T11:22:18;101893.97;;;7.93;83.31
80627;BME280;69982;51.758;5.784;2023-11-18T11:25:29;101873.27;;;7.96;83.46
80627;BME280;69982;51.758;5.784;2023-11-18T11:28:21;101860.73;;;7.97;83.33
80627;BME280;69982;51.758;5.784;2023-11-18T11:30:50;101869.34;;;7.98;83.34
80627;BME280;69982;51.758;5.784;2023-11-18T11:33:46;101870.11;;;7.97;83.43
80627;BME280;69982;51.758;5.784;2023-11-18T11:36:30;101859.48;;;7.97;83.44
80627;BME280;69982;51.758;5.784;2023-11-18T11:39:00;101848.30;;;8.00;83.36
80627;BME280;69982;51.758;5.784;2023-11-18T11:41:30;101843.21;;;8.02;83.45
80627;BME280;69982;51.758;5.784;2023-11-18T11:44:00;101831.17;;;8.04;83.36
80627;BME280;69982;51.758;5.784;2023-11-18T11:46:28;101814.09;;;8.06;83.45
80627;BME280;69982;51.758;5.784;2023-11-18T11:49:04;101783.13;;;8.07;83.58
80627;BME280;69982;51.758;5.784;2023-11-18T11:51:48;101775.23;;;8.07;83.61
80627;BME280;69982;51.758;5.784;2023-11-18T11:54:20;101775.41;;;8.05;83.63
80627;BME280;69982;51.758;5.784;2023-11-18T11:56:49;101769.46;;;8.02;83.76
80627;BME280;69982;51.758;5.784;2023-11-18T11:59:56;101758.15;;;8.02;83.95
80627;BME280;69982;51.758;5.784;2023-11-18T12:02:50;101737.23;;;8.02;84.14
80627;BME280;69982;51.758;5.784;2023-11-18T12:05:41;101731.84;;;8.04;84.25
80627;BME280;69982;51.758;5.784;2023-11-18T12:08:13;101724.70;;;8.07;84.26
80627;BME280;69982;51.758;5.784;2023-11-18T12:11:01;101718.94;;;8.09;84.48
80627;BME280;69982;51.758;5.784;2023-11-18T12:13:29;101713.41;;;8.08;84.45
80627;BME280;69982;51.758;5.784;2023-11-18T12:16:13;101707.23;;;8.07;84.50
80627;BME280;69982;51.758;5.784;2023-11-18T12:19:28;101707.29;;;8.08;84.62
80627;BME280;69982;51.758;5.784;2023-11-18T12:21:54;101703.10;;;8.11;84.52
80627;BME280;69982;51.758;5.784;2023-11-18T12:24:21;101699.02;;;8.14;84.66
80627;BME280;69982;51.758;5.784;2023-11-18T12:26:49;101695.91;;;8.17;84.68
80627;BME280;69982;51.758;5.784;2023-11-18T12:29:32;101696.75;;;8.18;84.61
80627;BME280;69982;51.758;5.784;2023-11-18T12:32:00;101681.45;;;8.17;84.75
80627;BME280;69982;51.758;5.784;2023-11-18T12:34:51;101661.01;;;8.18;84.70
80627;BME280;69982;51.758;5.784;2023-11-18T12:40:28;101657.13;;;8.25;84.76
80627;BME280;69982;51.758;5.784;2023-11-18T12:43:03;101640.52;;;8.32;84.84
80627;BME280;69982;51.758;5.784;2023-11-18T12:45:43;101625.98;;;8.37;84.82
80627;BME280;69982;51.758;5.784;2023-11-18T12:48:21;101620.27;;;8.41;84.64
80627;BME280;69982;51.758;5.784;2023-11-18T12:50:53;101619.52;;;8.41;84.61
80627;BME280;69982;51.758;5.784;2023-11-18T12:53:23;101610.90;;;8.41;84.65
80627;BME280;69982;51.758;5.784;2023-11-18T12:55:57;101596.38;;;8.40;84.74
80627;BME280;69982;51.758;5.784;2023-11-18T12:58:25;101585.21;;;8.41;84.70
80627;BME280;69982;51.758;5.784;2023-11-18T13:00:52;101567.67;;;8.44;84.71
80627;BME280;69982;51.758;5.784;2023-11-18T13:03:18;101544.79;;;8.48;84.78
80627;BME280;69982;51.758;5.784;2023-11-18T13:05:56;101528.45;;;8.49;84.80
80627;BME280;69982;51.758;5.784;2023-11-18T13:08:23;101518.75;;;8.49;84.69
80627;BME280;69982;51.758;5.784;2023-11-18T13:11:33;101508.86;;;8.46;84.79
80627;BME280;69982;51.758;5.784;2023-11-18T13:14:08;101489.22;;;8.44;84.99
80627;BME280;69982;51.758;5.784;2023-11-18T13:16:36;101462.90;;;8.43;85.02
80627;BME280;69982;51.758;5.784;2023-11-18T13:19:37;101466.55;;;8.45;85.06
80627;BME280;69982;51.758;5.784;2023-11-18T13:22:09;101479.31;;;8.46;85.19
80627;BME280;69982;51.758;5.784;2023-11-18T13:25:15;101479.97;;;8.44;85.23
80627;BME280;69982;51.758;5.784;2023-11-18T13:28:10;101484.00;;;8.42;85.12
80627;BME280;69982;51.758;5.784;2023-11-18T13:30:44;101492.77;;;8.40;85.29
80627;BME280;69982;51.758;5.784;2023-11-18T13:33:19;101488.04;;;8.41;85.22
80627;BME280;69982;51.758;5.784;2023-11-18T13:35:45;101481.64;;;8.42;85.34
80627;BME280;69982;51.758;5.784;2023-11-18T13:38:23;101472.84;;;8.43;85.33
80627;BME280;69982;51.758;5.784;2023-11-18T13:40:50;101472.69;;;8.43;85.31
80627;BME280;69982;51.758;5.784;2023-11-18T13:43:21;101475.64;;;8.40;85.34
80627;BME280;69982;51.758;5.784;2023-11-18T13:45:52;101459.33;;;8.39;85.38
80627;BME280;69982;51.758;5.784;2023-11-18T13:48:21;101462.20;;;8.39;85.55
80627;BME280;69982;51.758;5.784;2023-11-18T13:50:57;101449.84;;;8.40;85.63
80627;BME280;69982;51.758;5.784;2023-11-18T13:53:25;101457.94;;;8.42;85.66
80627;BME280;69982;51.758;5.784;2023-11-18T13:55:56;101456.14;;;8.42;85.67
80627;BME280;69982;51.758;5.784;2023-11-18T13:58:23;101458.08;;;8.41;85.80
80627;BME280;69982;51.758;5.784;2023-11-18T14:00:52;101455.77;;;8.40;85.73
80627;BME280;69982;51.758;5.784;2023-11-18T14:03:20;101442.95;;;8.40;85.59
80627;BME280;69982;51.758;5.784;2023-11-18T14:05:51;101438.85;;;8.42;85.84